Station: EBLG - 18/06/2024 17:50Z (il y a 24 minutes)
EBLG 181750Z 02008KT 5000 -RA FEW003 BKN004 BKN006 16/15 Q1012 TEMPO 3500 BKN006
Vent du 020º - 8 kt
Visibilité: 5000 m (faible pluie)
Nuages épars à 300 pieds - Ciel 75% couvert à 400 pieds - Ciel 75% couvert à 600 pieds
Température: +16ºC - Point de rosée: +15ºC - QNH: 1012 hPa
Temporairement
Visibilité: 3500 m
Ciel 75% couvert à 600 pieds